sensor_id;sensor_type;location;lat;lon;timestamp;P1;durP1;ratioP1;P2;durP2;ratioP2
45466;SDS011;31212;49.734;8.490;2023-08-21T00:01:19;6.80;;;3.10;;
45466;SDS011;31212;49.734;8.490;2023-08-21T00:03:46;11.02;;;3.28;;
45466;SDS011;31212;49.734;8.490;2023-08-21T00:06:12;6.75;;;2.97;;
45466;SDS011;31212;49.734;8.490;2023-08-21T00:08:40;4.30;;;3.08;;
45466;SDS011;31212;49.734;8.490;2023-08-21T00:11:06;5.10;;;3.03;;
45466;SDS011;31212;49.734;8.490;2023-08-21T00:13:33;7.13;;;2.80;;
45466;SDS011;31212;49.734;8.490;2023-08-21T00:15:59;5.03;;;2.78;;
45466;SDS011;31212;49.734;8.490;2023-08-21T00:18:26;7.65;;;4.03;;
45466;SDS011;31212;49.734;8.490;2023-08-21T00:20:52;6.13;;;2.67;;
45466;SDS011;31212;49.734;8.490;2023-08-21T00:23:19;7.00;;;3.20;;
45466;SDS011;31212;49.734;8.490;2023-08-21T00:25:47;3.85;;;2.65;;
45466;SDS011;31212;49.734;8.490;2023-08-21T00:28:13;4.75;;;2.78;;
45466;SDS011;31212;49.734;8.490;2023-08-21T00:30:42;6.72;;;3.53;;
45466;SDS011;31212;49.734;8.490;2023-08-21T00:33:08;7.63;;;3.50;;
45466;SDS011;31212;49.734;8.490;2023-08-21T00:35:35;5.95;;;3.08;;
45466;SDS011;31212;49.734;8.490;2023-08-21T00:38:01;7.95;;;3.22;;
45466;SDS011;31212;49.734;8.490;2023-08-21T00:40:28;5.10;;;2.78;;
45466;SDS011;31212;49.734;8.490;2023-08-21T00:42:56;4.88;;;2.97;;
45466;SDS011;31212;49.734;8.490;2023-08-21T00:45:22;9.02;;;3.55;;
45466;SDS011;31212;49.734;8.490;2023-08-21T00:47:49;5.50;;;3.13;;
45466;SDS011;31212;49.734;8.490;2023-08-21T00:50:17;8.95;;;3.13;;
45466;SDS011;31212;49.734;8.490;2023-08-21T00:52:44;4.28;;;2.58;;
45466;SDS011;31212;49.734;8.490;2023-08-21T00:55:12;3.70;;;2.92;;
45466;SDS011;31212;49.734;8.490;2023-08-21T00:57:39;8.73;;;3.90;;
45466;SDS011;31212;49.734;8.490;2023-08-21T05:17:23;7.68;;;4.60;;
45466;SDS011;31212;49.734;8.490;2023-08-21T05:19:50;14.57;;;4.60;;
45466;SDS011;31212;49.734;8.490;2023-08-21T05:22:17;7.82;;;4.43;;
45466;SDS011;31212;49.734;8.490;2023-08-21T05:24:43;8.13;;;5.25;;
45466;SDS011;31212;49.734;8.490;2023-08-21T05:27:09;6.38;;;4.40;;
45466;SDS011;31212;49.734;8.490;2023-08-21T05:29:36;8.02;;;4.57;;
45466;SDS011;31212;49.734;8.490;2023-08-21T05:32:02;11.00;;;5.85;;
45466;SDS011;31212;49.734;8.490;2023-08-21T05:34:30;10.00;;;5.28;;
45466;SDS011;31212;49.734;8.490;2023-08-21T05:36:57;7.28;;;3.95;;
45466;SDS011;31212;49.734;8.490;2023-08-21T05:39:24;5.78;;;3.55;;
45466;SDS011;31212;49.734;8.490;2023-08-21T05:41:51;7.45;;;4.38;;
45466;SDS011;31212;49.734;8.490;2023-08-21T05:44:18;7.85;;;4.32;;
45466;SDS011;31212;49.734;8.490;2023-08-21T05:46:45;9.23;;;4.20;;
45466;SDS011;31212;49.734;8.490;2023-08-21T05:49:11;10.40;;;5.57;;
45466;SDS011;31212;49.734;8.490;2023-08-21T05:51:39;8.95;;;5.22;;
45466;SDS011;31212;49.734;8.490;2023-08-21T05:54:07;5.22;;;3.85;;
45466;SDS011;31212;49.734;8.490;2023-08-21T05:56:35;6.82;;;4.07;;
45466;SDS011;31212;49.734;8.490;2023-08-21T05:59:01;9.38;;;4.47;;
45466;SDS011;31212;49.734;8.490;2023-08-21T06:01:28;8.10;;;4.20;;
45466;SDS011;31212;49.734;8.490;2023-08-21T06:03:55;9.43;;;5.47;;
45466;SDS011;31212;49.734;8.490;2023-08-21T06:06:52;5.95;;;3.63;;
45466;SDS011;31212;49.734;8.490;2023-08-21T06:09:19;6.95;;;4.57;;
45466;SDS011;31212;49.734;8.490;2023-08-21T06:11:45;9.32;;;5.05;;
45466;SDS011;31212;49.734;8.490;2023-08-21T06:14:12;6.85;;;4.90;;
45466;SDS011;31212;49.734;8.490;2023-08-21T06:16:38;7.53;;;4.70;;
45466;SDS011;31212;49.734;8.490;2023-08-21T06:19:04;7.60;;;4.25;;
45466;SDS011;31212;49.734;8.490;2023-08-21T06:21:31;5.53;;;3.83;;
45466;SDS011;31212;49.734;8.490;2023-08-21T06:23:59;5.55;;;4.32;;
45466;SDS011;31212;49.734;8.490;2023-08-21T06:26:25;8.77;;;4.15;;
45466;SDS011;31212;49.734;8.490;2023-08-21T06:28:52;4.43;;;3.08;;
45466;SDS011;31212;49.734;8.490;2023-08-21T06:31:18;6.55;;;4.20;;
45466;SDS011;31212;49.734;8.490;2023-08-21T06:33:46;11.30;;;4.28;;
45466;SDS011;31212;49.734;8.490;2023-08-21T06:36:13;6.75;;;4.35;;
45466;SDS011;31212;49.734;8.490;2023-08-21T06:38:39;10.68;;;4.78;;
45466;SDS011;31212;49.734;8.490;2023-08-21T06:41:07;5.43;;;2.97;;
45466;SDS011;31212;49.734;8.490;2023-08-21T06:43:34;5.72;;;3.28;;
45466;SDS011;31212;49.734;8.490;2023-08-21T06:46:01;6.38;;;3.50;;
45466;SDS011;31212;49.734;8.490;2023-08-21T06:48:27;4.80;;;3.22;;
45466;SDS011;31212;49.734;8.490;2023-08-21T06:50:53;7.07;;;3.88;;
45466;SDS011;31212;49.734;8.490;2023-08-21T06:53:20;4.75;;;2.28;;
45466;SDS011;31212;49.734;8.490;2023-08-21T06:55:46;5.72;;;3.47;;
45466;SDS011;31212;49.734;8.490;2023-08-21T06:58:14;3.85;;;3.00;;
45466;SDS011;31212;49.734;8.490;2023-08-21T07:00:40;8.70;;;2.75;;
45466;SDS011;31212;49.734;8.490;2023-08-21T07:03:07;5.25;;;3.70;;
45466;SDS011;31212;49.734;8.490;2023-08-21T07:05:33;6.90;;;3.17;;
45466;SDS011;31212;49.734;8.490;2023-08-21T07:08:00;4.15;;;2.63;;
45466;SDS011;31212;49.734;8.490;2023-08-21T07:10:26;4.00;;;2.58;;
45466;SDS011;31212;49.734;8.490;2023-08-21T07:12:54;3.35;;;2.70;;
45466;SDS011;31212;49.734;8.490;2023-08-21T07:15:22;4.30;;;2.90;;
45466;SDS011;31212;49.734;8.490;2023-08-21T07:17:48;4.85;;;3.08;;
45466;SDS011;31212;49.734;8.490;2023-08-21T07:20:15;3.40;;;2.63;;
45466;SDS011;31212;49.734;8.490;2023-08-21T07:22:42;3.28;;;2.53;;
45466;SDS011;31212;49.734;8.490;2023-08-21T07:25:08;2.88;;;2.30;;
45466;SDS011;31212;49.734;8.490;2023-08-21T07:27:35;3.05;;;2.28;;
45466;SDS011;31212;49.734;8.490;2023-08-21T07:30:01;4.70;;;2.88;;
45466;SDS011;31212;49.734;8.490;2023-08-21T07:32:29;4.05;;;2.72;;
45466;SDS011;31212;49.734;8.490;2023-08-21T07:34:55;5.18;;;2.95;;
45466;SDS011;31212;49.734;8.490;2023-08-21T07:37:22;5.88;;;2.83;;
45466;SDS011;31212;49.734;8.490;2023-08-21T07:39:48;3.50;;;2.47;;
45466;SDS011;31212;49.734;8.490;2023-08-21T07:42:14;4.22;;;2.78;;
45466;SDS011;31212;49.734;8.490;2023-08-21T07:44:41;3.45;;;2.72;;
45466;SDS011;31212;49.734;8.490;2023-08-21T07:47:07;3.40;;;2.22;;
45466;SDS011;31212;49.734;8.490;2023-08-21T07:49:35;3.45;;;2.60;;
45466;SDS011;31212;49.734;8.490;2023-08-21T07:52:02;3.13;;;2.50;;
45466;SDS011;31212;49.734;8.490;2023-08-21T07:54:29;4.25;;;2.88;;
45466;SDS011;31212;49.734;8.490;2023-08-21T07:56:55;2.35;;;2.15;;
45466;SDS011;31212;49.734;8.490;2023-08-21T07:59:22;4.13;;;2.70;;
45466;SDS011;31212;49.734;8.490;2023-08-21T08:01:48;4.40;;;2.70;;
45466;SDS011;31212;49.734;8.490;2023-08-21T08:04:14;2.90;;;2.42;;
45466;SDS011;31212;49.734;8.490;2023-08-21T08:06:43;3.13;;;2.38;;
45466;SDS011;31212;49.734;8.490;2023-08-21T08:09:09;4.22;;;2.80;;
45466;SDS011;31212;49.734;8.490;2023-08-21T08:11:36;4.85;;;2.50;;
45466;SDS011;31212;49.734;8.490;2023-08-21T08:14:02;5.30;;;3.05;;
45466;SDS011;31212;49.734;8.490;2023-08-21T08:16:28;2.63;;;2.30;;
45466;SDS011;31212;49.734;8.490;2023-08-21T08:18:55;4.95;;;2.30;;
45466;SDS011;31212;49.734;8.490;2023-08-21T08:21:23;3.55;;;2.35;;
45466;SDS011;31212;49.734;8.490;2023-08-21T08:23:50;4.45;;;2.95;;
45466;SDS011;31212;49.734;8.490;2023-08-21T08:26:17;4.53;;;2.33;;
45466;SDS011;31212;49.734;8.490;2023-08-21T08:28:43;4.53;;;2.92;;
45466;SDS011;31212;49.734;8.490;2023-08-21T08:31:14;4.43;;;2.70;;
45466;SDS011;31212;49.734;8.490;2023-08-21T08:36:07;4.95;;;2.50;;
45466;SDS011;31212;49.734;8.490;2023-08-21T08:38:34;5.00;;;2.80;;
45466;SDS011;31212;49.734;8.490;2023-08-21T08:41:01;4.57;;;2.55;;
45466;SDS011;31212;49.734;8.490;2023-08-21T08:43:28;2.95;;;2.65;;
45466;SDS011;31212;49.734;8.490;2023-08-21T08:45:55;8.38;;;3.22;;
45466;SDS011;31212;49.734;8.490;2023-08-21T08:48:22;5.35;;;3.05;;
45466;SDS011;31212;49.734;8.490;2023-08-21T08:50:52;4.05;;;2.60;;
45466;SDS011;31212;49.734;8.490;2023-08-21T08:53:19;4.15;;;2.95;;
45466;SDS011;31212;49.734;8.490;2023-08-21T08:55:45;3.20;;;2.22;;
45466;SDS011;31212;49.734;8.490;2023-08-21T08:58:13;3.80;;;2.80;;
45466;SDS011;31212;49.734;8.490;2023-08-21T09:00:39;4.13;;;2.38;;
45466;SDS011;31212;49.734;8.490;2023-08-21T09:03:06;4.45;;;2.97;;
45466;SDS011;31212;49.734;8.490;2023-08-21T09:05:33;3.78;;;2.15;;
45466;SDS011;31212;49.734;8.490;2023-08-21T09:08:03;5.95;;;2.88;;
45466;SDS011;31212;49.734;8.490;2023-08-21T09:10:36;2.83;;;2.20;;
45466;SDS011;31212;49.734;8.490;2023-08-21T09:13:08;3.13;;;2.40;;
45466;SDS011;31212;49.734;8.490;2023-08-21T09:15:36;4.25;;;2.95;;
45466;SDS011;31212;49.734;8.490;2023-08-21T09:18:03;3.40;;;2.65;;
45466;SDS011;31212;49.734;8.490;2023-08-21T09:20:34;4.28;;;2.53;;
45466;SDS011;31212;49.734;8.490;2023-08-21T09:23:00;4.47;;;2.20;;
45466;SDS011;31212;49.734;8.490;2023-08-21T09:25:27;6.13;;;2.30;;
45466;SDS011;31212;49.734;8.490;2023-08-21T09:27:53;8.80;;;3.92;;
45466;SDS011;31212;49.734;8.490;2023-08-21T09:30:20;11.40;;;2.35;;
45466;SDS011;31212;49.734;8.490;2023-08-21T09:32:54;4.75;;;3.00;;
45466;SDS011;31212;49.734;8.490;2023-08-21T09:35:21;3.58;;;2.72;;
45466;SDS011;31212;49.734;8.490;2023-08-21T09:37:48;3.22;;;2.50;;
45466;SDS011;31212;49.734;8.490;2023-08-21T09:40:18;4.18;;;2.58;;
45466;SDS011;31212;49.734;8.490;2023-08-21T09:42:44;7.10;;;3.17;;
45466;SDS011;31212;49.734;8.490;2023-08-21T09:45:11;6.38;;;2.40;;
45466;SDS011;31212;49.734;8.490;2023-08-21T09:47:37;6.10;;;2.65;;
45466;SDS011;31212;49.734;8.490;2023-08-21T09:50:06;4.32;;;2.70;;
45466;SDS011;31212;49.734;8.490;2023-08-21T09:52:33;2.83;;;2.15;;
45466;SDS011;31212;49.734;8.490;2023-08-21T09:55:03;2.70;;;2.00;;
45466;SDS011;31212;49.734;8.490;2023-08-21T09:57:31;2.85;;;2.47;;
45466;SDS011;31212;49.734;8.490;2023-08-21T09:59:59;6.05;;;2.95;;
45466;SDS011;31212;49.734;8.490;2023-08-21T10:02:37;4.57;;;2.70;;
45466;SDS011;31212;49.734;8.490;2023-08-21T10:05:05;3.00;;;2.45;;
45466;SDS011;31212;49.734;8.490;2023-08-21T10:07:32;2.53;;;2.33;;
45466;SDS011;31212;49.734;8.490;2023-08-21T10:09:59;5.05;;;2.28;;
45466;SDS011;31212;49.734;8.490;2023-08-21T10:12:26;4.10;;;2.85;;
45466;SDS011;31212;49.734;8.490;2023-08-21T10:14:53;5.47;;;2.58;;
45466;SDS011;31212;49.734;8.490;2023-08-21T10:17:19;3.13;;;2.20;;
45466;SDS011;31212;49.734;8.490;2023-08-21T10:19:50;3.40;;;2.17;;
45466;SDS011;31212;49.734;8.490;2023-08-21T10:22:19;2.75;;;2.13;;
45466;SDS011;31212;49.734;8.490;2023-08-21T10:25:01;3.50;;;2.17;;
45466;SDS011;31212;49.734;8.490;2023-08-21T10:27:29;4.95;;;2.83;;
45466;SDS011;31212;49.734;8.490;2023-08-21T10:29:56;3.88;;;2.67;;
45466;SDS011;31212;49.734;8.490;2023-08-21T10:32:22;2.88;;;1.85;;
45466;SDS011;31212;49.734;8.490;2023-08-21T10:34:51;7.65;;;2.70;;
45466;SDS011;31212;49.734;8.490;2023-08-21T10:37:19;4.25;;;1.95;;
45466;SDS011;31212;49.734;8.490;2023-08-21T10:39:55;3.05;;;2.45;;
45466;SDS011;31212;49.734;8.490;2023-08-21T10:42:36;3.13;;;2.05;;
45466;SDS011;31212;49.734;8.490;2023-08-21T10:45:09;2.72;;;2.13;;
45466;SDS011;31212;49.734;8.490;2023-08-21T10:47:36;3.88;;;2.20;;
45466;SDS011;31212;49.734;8.490;2023-08-21T10:50:03;2.60;;;2.10;;
45466;SDS011;31212;49.734;8.490;2023-08-21T10:52:31;6.85;;;2.08;;
45466;SDS011;31212;49.734;8.490;2023-08-21T10:55:00;4.22;;;2.05;;
45466;SDS011;31212;49.734;8.490;2023-08-21T10:57:29;1.60;;;1.50;;
45466;SDS011;31212;49.734;8.490;2023-08-21T10:59:56;2.30;;;1.55;;
45466;SDS011;31212;49.734;8.490;2023-08-21T11:02:23;4.38;;;2.15;;
45466;SDS011;31212;49.734;8.490;2023-08-21T11:04:50;5.20;;;1.95;;
45466;SDS011;31212;49.734;8.490;2023-08-21T11:07:16;3.70;;;1.70;;
45466;SDS011;31212;49.734;8.490;2023-08-21T11:09:44;4.43;;;1.88;;
45466;SDS011;31212;49.734;8.490;2023-08-21T11:12:12;2.05;;;1.67;;
45466;SDS011;31212;49.734;8.490;2023-08-21T11:14:39;1.63;;;1.20;;
45466;SDS011;31212;49.734;8.490;2023-08-21T11:17:08;3.40;;;2.50;;
45466;SDS011;31212;49.734;8.490;2023-08-21T11:19:34;2.22;;;1.42;;
45466;SDS011;31212;49.734;8.490;2023-08-21T11:22:02;1.75;;;1.00;;
45466;SDS011;31212;49.734;8.490;2023-08-21T11:24:40;3.95;;;1.45;;
45466;SDS011;31212;49.734;8.490;2023-08-21T11:27:08;1.55;;;1.20;;
45466;SDS011;31212;49.734;8.490;2023-08-21T11:29:38;1.63;;;1.00;;
45466;SDS011;31212;49.734;8.490;2023-08-21T11:32:07;2.63;;;1.48;;
45466;SDS011;31212;49.734;8.490;2023-08-21T11:34:33;2.17;;;1.42;;
45466;SDS011;31212;49.734;8.490;2023-08-21T11:37:00;1.90;;;1.67;;
45466;SDS011;31212;49.734;8.490;2023-08-21T11:39:27;2.83;;;1.65;;
45466;SDS011;31212;49.734;8.490;2023-08-21T11:41:55;1.83;;;1.33;;
45466;SDS011;31212;49.734;8.490;2023-08-21T11:44:23;2.00;;;1.20;;
45466;SDS011;31212;49.734;8.490;2023-08-21T11:46:50;2.15;;;1.42;;
45466;SDS011;31212;49.734;8.490;2023-08-21T11:49:17;1.42;;;1.23;;
45466;SDS011;31212;49.734;8.490;2023-08-21T11:51:44;1.75;;;1.35;;
45466;SDS011;31212;49.734;8.490;2023-08-21T11:54:11;0.95;;;0.80;;
45466;SDS011;31212;49.734;8.490;2023-08-21T11:56:38;3.58;;;1.40;;
45466;SDS011;31212;49.734;8.490;2023-08-21T11:59:06;1.67;;;1.00;;
45466;SDS011;31212;49.734;8.490;2023-08-21T12:01:34;2.72;;;1.10;;
45466;SDS011;31212;49.734;8.490;2023-08-21T12:04:00;1.60;;;1.10;;
45466;SDS011;31212;49.734;8.490;2023-08-21T12:06:27;0.60;;;0.60;;
45466;SDS011;31212;49.734;8.490;2023-08-21T12:08:57;1.33;;;0.90;;
45466;SDS011;31212;49.734;8.490;2023-08-21T12:11:24;4.40;;;0.80;;
45466;SDS011;31212;49.734;8.490;2023-08-21T12:13:50;1.52;;;0.80;;
45466;SDS011;31212;49.734;8.490;2023-08-21T12:16:17;1.33;;;0.80;;
45466;SDS011;31212;49.734;8.490;2023-08-21T12:18:45;1.15;;;0.60;;
45466;SDS011;31212;49.734;8.490;2023-08-21T12:21:12;0.80;;;0.60;;
45466;SDS011;31212;49.734;8.490;2023-08-21T12:23:38;1.02;;;0.93;;
45466;SDS011;31212;49.734;8.490;2023-08-21T12:26:05;0.40;;;0.40;;
45466;SDS011;31212;49.734;8.490;2023-08-21T12:28:31;1.05;;;0.70;;
45466;SDS011;31212;49.734;8.490;2023-08-21T12:30:57;0.90;;;0.80;;
45466;SDS011;31212;49.734;8.490;2023-08-21T12:33:24;0.93;;;0.63;;
45466;SDS011;31212;49.734;8.490;2023-08-21T12:35:52;0.52;;;0.50;;
45466;SDS011;31212;49.734;8.490;2023-08-21T12:38:19;0.63;;;0.50;;
45466;SDS011;31212;49.734;8.490;2023-08-21T12:40:46;0.55;;;0.45;;
45466;SDS011;31212;49.734;8.490;2023-08-21T12:43:12;0.47;;;0.40;;
45466;SDS011;31212;49.734;8.490;2023-08-21T12:45:39;1.98;;;0.70;;
45466;SDS011;31212;49.734;8.490;2023-08-21T12:48:05;0.57;;;0.52;;
45466;SDS011;31212;49.734;8.490;2023-08-21T12:50:32;1.38;;;0.80;;
45466;SDS011;31212;49.734;8.490;2023-08-21T12:53:00;0.40;;;0.40;;
45466;SDS011;31212;49.734;8.490;2023-08-21T12:55:27;0.95;;;0.68;;
45466;SDS011;31212;49.734;8.490;2023-08-21T12:57:54;1.65;;;0.65;;
45466;SDS011;31212;49.734;8.490;2023-08-21T13:00:21;1.83;;;0.40;;
45466;SDS011;31212;49.734;8.490;2023-08-21T13:02:47;0.63;;;0.63;;
45466;SDS011;31212;49.734;8.490;2023-08-21T13:05:14;1.15;;;0.73;;
45466;SDS011;31212;49.734;8.490;2023-08-21T13:07:40;1.10;;;0.80;;
45466;SDS011;31212;49.734;8.490;2023-08-21T13:10:09;0.45;;;0.45;;
45466;SDS011;31212;49.734;8.490;2023-08-21T13:12:35;1.38;;;1.00;;
45466;SDS011;31212;49.734;8.490;2023-08-21T13:15:02;0.82;;;0.60;;
45466;SDS011;31212;49.734;8.490;2023-08-21T13:17:29;0.80;;;0.70;;
45466;SDS011;31212;49.734;8.490;2023-08-21T13:19:55;1.85;;;0.90;;
45466;SDS011;31212;49.734;8.490;2023-08-21T13:22:22;0.98;;;0.88;;
45466;SDS011;31212;49.734;8.490;2023-08-21T13:24:48;1.00;;;0.70;;
45466;SDS011;31212;49.734;8.490;2023-08-21T13:27:16;2.20;;;0.60;;
45466;SDS011;31212;49.734;8.490;2023-08-21T13:29:42;0.40;;;0.40;;
45466;SDS011;31212;49.734;8.490;2023-08-21T13:32:09;0.57;;;0.57;;
45466;SDS011;31212;49.734;8.490;2023-08-21T13:34:36;0.47;;;0.47;;
45466;SDS011;31212;49.734;8.490;2023-08-21T13:37:03;1.02;;;0.70;;
45466;SDS011;31212;49.734;8.490;2023-08-21T13:39:29;1.35;;;0.55;;
45466;SDS011;31212;49.734;8.490;2023-08-21T13:41:55;1.75;;;1.00;;
45466;SDS011;31212;49.734;8.490;2023-08-21T13:44:23;1.48;;;0.80;;
45466;SDS011;31212;49.734;8.490;2023-08-21T13:46:50;0.73;;;0.73;;
45466;SDS011;31212;49.734;8.490;2023-08-21T13:49:16;0.65;;;0.60;;
45466;SDS011;31212;49.734;8.490;2023-08-21T13:51:42;0.77;;;0.50;;
45466;SDS011;31212;49.734;8.490;2023-08-21T13:54:09;1.30;;;0.85;;
45466;SDS011;31212;49.734;8.490;2023-08-21T13:56:36;2.40;;;1.02;;
45466;SDS011;31212;49.734;8.490;2023-08-21T13:59:03;0.88;;;0.75;;
45466;SDS011;31212;49.734;8.490;2023-08-21T14:01:30;0.73;;;0.60;;
45466;SDS011;31212;49.734;8.490;2023-08-21T14:03:57;0.60;;;0.55;;
45466;SDS011;31212;49.734;8.490;2023-08-21T14:06:23;0.65;;;0.57;;
45466;SDS011;31212;49.734;8.490;2023-08-21T14:08:49;0.90;;;0.70;;
45466;SDS011;31212;49.734;8.490;2023-08-21T14:11:16;0.60;;;0.60;;
45466;SDS011;31212;49.734;8.490;2023-08-21T14:13:42;0.57;;;0.57;;
45466;SDS011;31212;49.734;8.490;2023-08-21T14:16:08;2.00;;;0.77;;
45466;SDS011;31212;49.734;8.490;2023-08-21T14:18:36;3.35;;;0.95;;
45466;SDS011;31212;49.734;8.490;2023-08-21T14:21:03;1.20;;;0.75;;
45466;SDS011;31212;49.734;8.490;2023-08-21T14:23:29;0.80;;;0.73;;
45466;SDS011;31212;49.734;8.490;2023-08-21T14:25:55;0.77;;;0.77;;
45466;SDS011;31212;49.734;8.490;2023-08-21T14:28:22;1.08;;;0.88;;
45466;SDS011;31212;49.734;8.490;2023-08-21T14:30:48;0.98;;;0.75;;
45466;SDS011;31212;49.734;8.490;2023-08-21T14:33:17;0.68;;;0.60;;
45466;SDS011;31212;49.734;8.490;2023-08-21T14:35:45;0.68;;;0.68;;
45466;SDS011;31212;49.734;8.490;2023-08-21T14:38:11;1.55;;;1.00;;
45466;SDS011;31212;49.734;8.490;2023-08-21T14:40:38;0.95;;;0.90;;
45466;SDS011;31212;49.734;8.490;2023-08-21T14:43:04;5.00;;;1.13;;
45466;SDS011;31212;49.734;8.490;2023-08-21T14:45:31;3.80;;;0.95;;
45466;SDS011;31212;49.734;8.490;2023-08-21T14:47:58;0.77;;;0.77;;
45466;SDS011;31212;49.734;8.490;2023-08-21T14:50:24;1.10;;;0.73;;
45466;SDS011;31212;49.734;8.490;2023-08-21T14:52:52;2.13;;;0.88;;
45466;SDS011;31212;49.734;8.490;2023-08-21T14:55:18;0.60;;;0.60;;
45466;SDS011;31212;49.734;8.490;2023-08-21T14:57:45;0.82;;;0.80;;
45466;SDS011;31212;49.734;8.490;2023-08-21T15:00:12;0.95;;;0.70;;
45466;SDS011;31212;49.734;8.490;2023-08-21T15:02:39;1.65;;;1.00;;
45466;SDS011;31212;49.734;8.490;2023-08-21T15:05:05;3.75;;;0.70;;
45466;SDS011;31212;49.734;8.490;2023-08-21T15:07:32;1.13;;;0.77;;
45466;SDS011;31212;49.734;8.490;2023-08-21T15:10:00;0.80;;;0.73;;
45466;SDS011;31212;49.734;8.490;2023-08-21T15:12:26;0.68;;;0.68;;
45466;SDS011;31212;49.734;8.490;2023-08-21T15:14:53;1.27;;;0.75;;
45466;SDS011;31212;49.734;8.490;2023-08-21T15:17:19;0.60;;;0.60;;
45466;SDS011;31212;49.734;8.490;2023-08-21T15:19:46;0.73;;;0.60;;
45466;SDS011;31212;49.734;8.490;2023-08-21T15:22:13;0.95;;;0.90;;
45466;SDS011;31212;49.734;8.490;2023-08-21T15:24:39;2.05;;;0.98;;
45466;SDS011;31212;49.734;8.490;2023-08-21T15:27:07;1.65;;;0.88;;
45466;SDS011;31212;49.734;8.490;2023-08-21T15:29:33;0.98;;;0.80;;
45466;SDS011;31212;49.734;8.490;2023-08-21T15:32:00;1.08;;;0.70;;
45466;SDS011;31212;49.734;8.490;2023-08-21T15:34:26;1.02;;;0.77;;
45466;SDS011;31212;49.734;8.490;2023-08-21T15:36:52;1.80;;;0.85;;
45466;SDS011;31212;49.734;8.490;2023-08-21T15:39:19;1.77;;;1.13;;
45466;SDS011;31212;49.734;8.490;2023-08-21T15:41:45;1.75;;;1.00;;
45466;SDS011;31212;49.734;8.490;2023-08-21T15:44:13;0.85;;;0.70;;
45466;SDS011;31212;49.734;8.490;2023-08-21T15:46:39;1.20;;;0.85;;
45466;SDS011;31212;49.734;8.490;2023-08-21T15:49:07;0.70;;;0.70;;
45466;SDS011;31212;49.734;8.490;2023-08-21T15:51:35;1.55;;;1.15;;
45466;SDS011;31212;49.734;8.490;2023-08-21T15:54:01;1.23;;;1.02;;
45466;SDS011;31212;49.734;8.490;2023-08-21T15:56:28;1.70;;;0.90;;
45466;SDS011;31212;49.734;8.490;2023-08-21T15:58:55;1.65;;;1.15;;
45466;SDS011;31212;49.734;8.490;2023-08-21T16:01:23;1.20;;;0.70;;
45466;SDS011;31212;49.734;8.490;2023-08-21T16:03:49;1.00;;;0.90;;
45466;SDS011;31212;49.734;8.490;2023-08-21T16:06:15;1.27;;;1.00;;
45466;SDS011;31212;49.734;8.490;2023-08-21T16:08:42;3.53;;;1.35;;
45466;SDS011;31212;49.734;8.490;2023-08-21T16:11:08;1.65;;;1.13;;
45466;SDS011;31212;49.734;8.490;2023-08-21T16:13:34;1.50;;;1.00;;
45466;SDS011;31212;49.734;8.490;2023-08-21T16:16:01;1.13;;;0.65;;
45466;SDS011;31212;49.734;8.490;2023-08-21T16:18:29;1.08;;;0.90;;
45466;SDS011;31212;49.734;8.490;2023-08-21T16:20:55;2.30;;;0.90;;
45466;SDS011;31212;49.734;8.490;2023-08-21T16:23:22;1.00;;;0.90;;
45466;SDS011;31212;49.734;8.490;2023-08-21T16:25:48;2.40;;;1.05;;
45466;SDS011;31212;49.734;8.490;2023-08-21T16:28:14;1.13;;;0.80;;
45466;SDS011;31212;49.734;8.490;2023-08-21T16:30:41;1.58;;;0.90;;
45466;SDS011;31212;49.734;8.490;2023-08-21T16:33:07;1.10;;;0.93;;
45466;SDS011;31212;49.734;8.490;2023-08-21T16:35:35;0.85;;;0.80;;
45466;SDS011;31212;49.734;8.490;2023-08-21T16:38:01;1.35;;;1.20;;
45466;SDS011;31212;49.734;8.490;2023-08-21T16:40:28;0.85;;;0.80;;
45466;SDS011;31212;49.734;8.490;2023-08-21T16:42:55;1.55;;;1.05;;
45466;SDS011;31212;49.734;8.490;2023-08-21T16:45:21;1.02;;;0.85;;
45466;SDS011;31212;49.734;8.490;2023-08-21T16:47:48;0.70;;;0.68;;
45466;SDS011;31212;49.734;8.490;2023-08-21T16:50:14;1.30;;;1.05;;
45466;SDS011;31212;49.734;8.490;2023-08-21T16:52:42;1.00;;;0.82;;
45466;SDS011;31212;49.734;8.490;2023-08-21T16:55:08;3.30;;;1.13;;
45466;SDS011;31212;49.734;8.490;2023-08-21T16:57:35;1.40;;;0.93;;
45466;SDS011;31212;49.734;8.490;2023-08-21T17:00:02;1.35;;;0.80;;
45466;SDS011;31212;49.734;8.490;2023-08-21T17:02:34;1.45;;;0.75;;
45466;SDS011;31212;49.734;8.490;2023-08-21T17:05:00;4.78;;;1.00;;
45466;SDS011;31212;49.734;8.490;2023-08-21T17:07:28;1.83;;;1.38;;
45466;SDS011;31212;49.734;8.490;2023-08-21T17:09:59;1.10;;;1.00;;
45466;SDS011;31212;49.734;8.490;2023-08-21T17:12:28;2.75;;;1.02;;
45466;SDS011;31212;49.734;8.490;2023-08-21T17:14:54;1.77;;;0.90;;
45466;SDS011;31212;49.734;8.490;2023-08-21T17:17:21;2.13;;;1.23;;
45466;SDS011;31212;49.734;8.490;2023-08-21T17:19:47;1.17;;;0.95;;
45466;SDS011;31212;49.734;8.490;2023-08-21T17:22:14;1.17;;;0.80;;
45466;SDS011;31212;49.734;8.490;2023-08-21T17:24:40;2.30;;;0.95;;
45466;SDS011;31212;49.734;8.490;2023-08-21T17:27:08;2.33;;;1.27;;
45466;SDS011;31212;49.734;8.490;2023-08-21T17:29:34;4.13;;;1.40;;
45466;SDS011;31212;49.734;8.490;2023-08-21T17:32:08;2.80;;;1.13;;
45466;SDS011;31212;49.734;8.490;2023-08-21T17:34:34;2.97;;;1.08;;
45466;SDS011;31212;49.734;8.490;2023-08-21T17:37:01;2.70;;;1.35;;
45466;SDS011;31212;49.734;8.490;2023-08-21T17:39:27;5.50;;;2.10;;
45466;SDS011;31212;49.734;8.490;2023-08-21T17:41:54;2.53;;;1.15;;
45466;SDS011;31212;49.734;8.490;2023-08-21T17:44:22;1.17;;;0.73;;
45466;SDS011;31212;49.734;8.490;2023-08-21T17:46:48;1.27;;;0.70;;
45466;SDS011;31212;49.734;8.490;2023-08-21T17:49:15;0.90;;;0.70;;
45466;SDS011;31212;49.734;8.490;2023-08-21T17:51:42;2.88;;;0.75;;
45466;SDS011;31212;49.734;8.490;2023-08-21T17:54:08;4.38;;;1.20;;
45466;SDS011;31212;49.734;8.490;2023-08-21T17:56:35;1.25;;;1.10;;
45466;SDS011;31212;49.734;8.490;2023-08-21T17:59:01;1.02;;;0.75;;
45466;SDS011;31212;49.734;8.490;2023-08-21T18:01:29;1.00;;;0.77;;
45466;SDS011;31212;49.734;8.490;2023-08-21T18:03:56;1.75;;;1.15;;
45466;SDS011;31212;49.734;8.490;2023-08-21T18:06:22;1.20;;;0.85;;
45466;SDS011;31212;49.734;8.490;2023-08-21T18:08:49;1.15;;;0.82;;
45466;SDS011;31212;49.734;8.490;2023-08-21T18:11:15;3.08;;;0.80;;
45466;SDS011;31212;49.734;8.490;2023-08-21T18:13:42;1.75;;;0.70;;
45466;SDS011;31212;49.734;8.490;2023-08-21T18:16:08;2.65;;;1.25;;
45466;SDS011;31212;49.734;8.490;2023-08-21T18:18:37;1.00;;;0.70;;
45466;SDS011;31212;49.734;8.490;2023-08-21T18:21:05;0.65;;;0.65;;
45466;SDS011;31212;49.734;8.490;2023-08-21T18:23:32;0.85;;;0.75;;
45466;SDS011;31212;49.734;8.490;2023-08-21T18:25:59;0.98;;;0.88;;
45466;SDS011;31212;49.734;8.490;2023-08-21T18:28:27;1.45;;;1.05;;
45466;SDS011;31212;49.734;8.490;2023-08-21T18:30:55;0.70;;;0.55;;
45466;SDS011;31212;49.734;8.490;2023-08-21T18:33:22;1.20;;;0.90;;
45466;SDS011;31212;49.734;8.490;2023-08-21T18:35:50;1.35;;;0.80;;
45466;SDS011;31212;49.734;8.490;2023-08-21T18:38:17;1.35;;;0.88;;
45466;SDS011;31212;49.734;8.490;2023-08-21T18:40:45;1.67;;;1.02;;
45466;SDS011;31212;49.734;8.490;2023-08-21T18:43:12;1.10;;;0.70;;
45466;SDS011;31212;49.734;8.490;2023-08-21T18:45:38;1.38;;;0.88;;
45466;SDS011;31212;49.734;8.490;2023-08-21T18:48:05;3.08;;;0.85;;
45466;SDS011;31212;49.734;8.490;2023-08-21T18:50:32;1.10;;;0.93;;
45466;SDS011;31212;49.734;8.490;2023-08-21T18:53:01;1.80;;;0.85;;
45466;SDS011;31212;49.734;8.490;2023-08-21T18:55:28;1.70;;;1.27;;
45466;SDS011;31212;49.734;8.490;2023-08-21T18:57:55;3.08;;;1.20;;
45466;SDS011;31212;49.734;8.490;2023-08-21T19:00:22;1.67;;;0.90;;
45466;SDS011;31212;49.734;8.490;2023-08-21T19:02:48;1.73;;;1.30;;
45466;SDS011;31212;49.734;8.490;2023-08-21T19:05:14;3.08;;;1.10;;
45466;SDS011;31212;49.734;8.490;2023-08-21T19:07:41;1.42;;;1.00;;